sensor_id;sensor_type;location;lat;lon;timestamp;P1;durP1;ratioP1;P2;durP2;ratioP2
10805;SDS011;5455;53.224;6.000;2023-12-22T00:02:21;12.60;;;2.33;;
10805;SDS011;5455;53.224;6.000;2023-12-22T00:04:50;16.83;;;2.40;;
10805;SDS011;5455;53.224;6.000;2023-12-22T00:07:17;11.17;;;2.40;;
10805;SDS011;5455;53.224;6.000;2023-12-22T00:09:47;12.80;;;2.93;;
10805;SDS011;5455;53.224;6.000;2023-12-22T00:12:15;15.03;;;2.97;;
10805;SDS011;5455;53.224;6.000;2023-12-22T00:14:42;12.80;;;2.80;;
10805;SDS011;5455;53.224;6.000;2023-12-22T00:17:09;14.90;;;2.80;;
10805;SDS011;5455;53.224;6.000;2023-12-22T00:19:36;13.27;;;3.47;;
10805;SDS011;5455;53.224;6.000;2023-12-22T00:22:03;11.87;;;2.80;;
10805;SDS011;5455;53.224;6.000;2023-12-22T00:24:30;14.30;;;3.00;;
10805;SDS011;5455;53.224;6.000;2023-12-22T00:26:57;15.90;;;2.80;;
10805;SDS011;5455;53.224;6.000;2023-12-22T00:29:24;16.00;;;2.93;;
10805;SDS011;5455;53.224;6.000;2023-12-22T00:31:51;14.93;;;2.80;;
10805;SDS011;5455;53.224;6.000;2023-12-22T00:34:19;15.57;;;2.90;;
10805;SDS011;5455;53.224;6.000;2023-12-22T00:36:46;11.63;;;2.40;;
10805;SDS011;5455;53.224;6.000;2023-12-22T00:39:13;10.33;;;2.07;;
10805;SDS011;5455;53.224;6.000;2023-12-22T00:41:40;8.57;;;1.50;;
10805;SDS011;5455;53.224;6.000;2023-12-22T00:44:07;12.07;;;2.47;;
10805;SDS011;5455;53.224;6.000;2023-12-22T00:46:34;8.70;;;2.37;;
10805;SDS011;5455;53.224;6.000;2023-12-22T00:49:01;8.63;;;1.93;;
10805;SDS011;5455;53.224;6.000;2023-12-22T00:51:28;7.00;;;1.97;;
10805;SDS011;5455;53.224;6.000;2023-12-22T00:53:55;10.60;;;2.47;;
10805;SDS011;5455;53.224;6.000;2023-12-22T00:56:22;14.27;;;2.57;;
10805;SDS011;5455;53.224;6.000;2023-12-22T00:58:49;6.07;;;1.77;;
10805;SDS011;5455;53.224;6.000;2023-12-22T01:01:27;6.90;;;1.60;;
10805;SDS011;5455;53.224;6.000;2023-12-22T01:03:55;5.40;;;1.40;;
10805;SDS011;5455;53.224;6.000;2023-12-22T01:06:22;8.83;;;2.13;;
10805;SDS011;5455;53.224;6.000;2023-12-22T01:08:53;7.63;;;1.53;;
10805;SDS011;5455;53.224;6.000;2023-12-22T01:11:20;8.00;;;1.73;;
10805;SDS011;5455;53.224;6.000;2023-12-22T01:13:47;9.87;;;2.87;;
10805;SDS011;5455;53.224;6.000;2023-12-22T01:16:14;9.43;;;2.00;;
10805;SDS011;5455;53.224;6.000;2023-12-22T01:18:42;12.43;;;2.63;;
10805;SDS011;5455;53.224;6.000;2023-12-22T01:21:11;10.30;;;2.33;;
10805;SDS011;5455;53.224;6.000;2023-12-22T01:23:38;11.30;;;2.27;;
10805;SDS011;5455;53.224;6.000;2023-12-22T01:26:05;11.23;;;2.57;;
10805;SDS011;5455;53.224;6.000;2023-12-22T01:28:33;13.60;;;2.07;;
10805;SDS011;5455;53.224;6.000;2023-12-22T01:31:01;10.10;;;2.17;;
10805;SDS011;5455;53.224;6.000;2023-12-22T01:33:29;10.27;;;2.07;;
10805;SDS011;5455;53.224;6.000;2023-12-22T01:35:59;10.83;;;2.00;;
10805;SDS011;5455;53.224;6.000;2023-12-22T01:38:26;8.30;;;1.93;;
10805;SDS011;5455;53.224;6.000;2023-12-22T01:40:53;10.00;;;2.70;;
10805;SDS011;5455;53.224;6.000;2023-12-22T01:43:20;11.90;;;2.13;;
10805;SDS011;5455;53.224;6.000;2023-12-22T01:45:49;15.40;;;2.57;;
10805;SDS011;5455;53.224;6.000;2023-12-22T01:48:21;8.53;;;1.97;;
10805;SDS011;5455;53.224;6.000;2023-12-22T01:50:50;14.23;;;2.70;;
10805;SDS011;5455;53.224;6.000;2023-12-22T01:53:20;13.70;;;3.00;;
10805;SDS011;5455;53.224;6.000;2023-12-22T01:55:48;16.20;;;3.37;;
10805;SDS011;5455;53.224;6.000;2023-12-22T01:58:18;16.37;;;2.47;;
10805;SDS011;5455;53.224;6.000;2023-12-22T02:00:46;10.07;;;2.50;;
10805;SDS011;5455;53.224;6.000;2023-12-22T02:03:13;12.50;;;3.00;;
10805;SDS011;5455;53.224;6.000;2023-12-22T02:05:41;9.10;;;2.27;;
10805;SDS011;5455;53.224;6.000;2023-12-22T02:08:09;13.30;;;2.63;;
10805;SDS011;5455;53.224;6.000;2023-12-22T02:10:37;19.63;;;3.20;;
10805;SDS011;5455;53.224;6.000;2023-12-22T02:13:05;9.50;;;2.20;;
10805;SDS011;5455;53.224;6.000;2023-12-22T02:15:32;5.37;;;1.83;;
10805;SDS011;5455;53.224;6.000;2023-12-22T02:18:03;8.93;;;1.50;;
10805;SDS011;5455;53.224;6.000;2023-12-22T02:20:35;9.73;;;1.90;;
10805;SDS011;5455;53.224;6.000;2023-12-22T02:23:02;5.83;;;1.93;;
10805;SDS011;5455;53.224;6.000;2023-12-22T02:25:29;9.90;;;2.20;;
10805;SDS011;5455;53.224;6.000;2023-12-22T02:30:38;12.87;;;2.07;;
10805;SDS011;5455;53.224;6.000;2023-12-22T02:33:10;6.83;;;1.70;;
10805;SDS011;5455;53.224;6.000;2023-12-22T02:35:42;6.90;;;1.13;;
10805;SDS011;5455;53.224;6.000;2023-12-22T02:38:12;5.40;;;1.27;;
10805;SDS011;5455;53.224;6.000;2023-12-22T02:40:39;9.83;;;1.20;;
10805;SDS011;5455;53.224;6.000;2023-12-22T02:43:07;3.93;;;0.90;;
10805;SDS011;5455;53.224;6.000;2023-12-22T02:45:35;5.80;;;1.23;;
10805;SDS011;5455;53.224;6.000;2023-12-22T02:48:02;6.00;;;1.50;;
10805;SDS011;5455;53.224;6.000;2023-12-22T02:50:29;6.50;;;1.67;;
10805;SDS011;5455;53.224;6.000;2023-12-22T02:52:56;5.73;;;1.23;;
10805;SDS011;5455;53.224;6.000;2023-12-22T02:55:26;8.33;;;1.43;;
10805;SDS011;5455;53.224;6.000;2023-12-22T02:57:53;7.87;;;2.37;;
10805;SDS011;5455;53.224;6.000;2023-12-22T03:00:20;4.90;;;1.53;;
10805;SDS011;5455;53.224;6.000;2023-12-22T03:02:47;7.13;;;1.70;;
10805;SDS011;5455;53.224;6.000;2023-12-22T03:05:14;10.20;;;2.20;;
10805;SDS011;5455;53.224;6.000;2023-12-22T03:07:41;12.53;;;2.20;;
10805;SDS011;5455;53.224;6.000;2023-12-22T03:10:08;11.10;;;2.00;;
10805;SDS011;5455;53.224;6.000;2023-12-22T03:12:35;7.13;;;1.77;;
10805;SDS011;5455;53.224;6.000;2023-12-22T03:15:03;8.17;;;2.00;;
10805;SDS011;5455;53.224;6.000;2023-12-22T03:17:31;10.20;;;2.10;;
10805;SDS011;5455;53.224;6.000;2023-12-22T03:19:58;9.63;;;2.23;;
10805;SDS011;5455;53.224;6.000;2023-12-22T03:22:25;13.10;;;2.37;;
10805;SDS011;5455;53.224;6.000;2023-12-22T03:24:52;8.23;;;2.53;;
10805;SDS011;5455;53.224;6.000;2023-12-22T03:27:18;9.67;;;2.20;;
10805;SDS011;5455;53.224;6.000;2023-12-22T03:29:47;7.47;;;1.87;;
10805;SDS011;5455;53.224;6.000;2023-12-22T03:32:14;10.47;;;1.83;;
10805;SDS011;5455;53.224;6.000;2023-12-22T03:34:40;12.93;;;2.43;;
10805;SDS011;5455;53.224;6.000;2023-12-22T03:37:08;9.17;;;1.93;;
10805;SDS011;5455;53.224;6.000;2023-12-22T03:39:35;15.00;;;2.00;;
10805;SDS011;5455;53.224;6.000;2023-12-22T03:42:02;10.50;;;2.00;;
10805;SDS011;5455;53.224;6.000;2023-12-22T03:44:29;13.30;;;2.00;;
10805;SDS011;5455;53.224;6.000;2023-12-22T03:46:56;14.83;;;2.53;;
10805;SDS011;5455;53.224;6.000;2023-12-22T03:49:23;12.40;;;2.37;;
10805;SDS011;5455;53.224;6.000;2023-12-22T03:51:50;11.30;;;1.97;;
10805;SDS011;5455;53.224;6.000;2023-12-22T03:54:17;8.97;;;1.83;;
10805;SDS011;5455;53.224;6.000;2023-12-22T03:56:44;14.10;;;2.90;;
10805;SDS011;5455;53.224;6.000;2023-12-22T03:59:11;11.40;;;2.10;;
10805;SDS011;5455;53.224;6.000;2023-12-22T04:01:39;16.40;;;2.53;;
10805;SDS011;5455;53.224;6.000;2023-12-22T04:04:06;12.93;;;2.60;;
10805;SDS011;5455;53.224;6.000;2023-12-22T04:06:33;10.33;;;2.27;;
10805;SDS011;5455;53.224;6.000;2023-12-22T04:09:05;8.67;;;2.03;;
10805;SDS011;5455;53.224;6.000;2023-12-22T04:11:32;15.43;;;2.63;;
10805;SDS011;5455;53.224;6.000;2023-12-22T04:14:06;8.10;;;2.13;;
10805;SDS011;5455;53.224;6.000;2023-12-22T04:16:32;9.43;;;1.90;;
10805;SDS011;5455;53.224;6.000;2023-12-22T04:18:59;12.63;;;2.57;;
10805;SDS011;5455;53.224;6.000;2023-12-22T04:21:27;6.07;;;2.03;;
10805;SDS011;5455;53.224;6.000;2023-12-22T04:23:53;12.03;;;2.40;;
10805;SDS011;5455;53.224;6.000;2023-12-22T04:26:20;9.53;;;2.50;;
10805;SDS011;5455;53.224;6.000;2023-12-22T04:28:47;11.77;;;2.67;;
10805;SDS011;5455;53.224;6.000;2023-12-22T04:31:14;8.93;;;2.07;;
10805;SDS011;5455;53.224;6.000;2023-12-22T04:33:41;13.20;;;2.30;;
10805;SDS011;5455;53.224;6.000;2023-12-22T04:36:08;15.03;;;2.50;;
10805;SDS011;5455;53.224;6.000;2023-12-22T04:38:35;14.40;;;2.60;;
10805;SDS011;5455;53.224;6.000;2023-12-22T04:41:02;12.30;;;2.30;;
10805;SDS011;5455;53.224;6.000;2023-12-22T04:43:29;13.03;;;2.30;;
10805;SDS011;5455;53.224;6.000;2023-12-22T04:45:56;10.93;;;2.13;;
10805;SDS011;5455;53.224;6.000;2023-12-22T04:48:23;9.93;;;1.97;;
10805;SDS011;5455;53.224;6.000;2023-12-22T04:50:50;8.03;;;1.50;;
10805;SDS011;5455;53.224;6.000;2023-12-22T04:53:17;10.73;;;2.63;;
10805;SDS011;5455;53.224;6.000;2023-12-22T04:55:44;10.57;;;2.40;;
10805;SDS011;5455;53.224;6.000;2023-12-22T04:58:11;10.77;;;2.27;;
10805;SDS011;5455;53.224;6.000;2023-12-22T05:00:39;12.30;;;2.30;;
10805;SDS011;5455;53.224;6.000;2023-12-22T05:03:06;9.17;;;2.30;;
10805;SDS011;5455;53.224;6.000;2023-12-22T05:05:33;11.17;;;2.40;;
10805;SDS011;5455;53.224;6.000;2023-12-22T05:08:00;11.27;;;1.80;;
10805;SDS011;5455;53.224;6.000;2023-12-22T05:10:27;15.37;;;2.10;;
10805;SDS011;5455;53.224;6.000;2023-12-22T05:12:54;8.83;;;2.40;;
10805;SDS011;5455;53.224;6.000;2023-12-22T05:15:21;14.67;;;2.47;;
10805;SDS011;5455;53.224;6.000;2023-12-22T05:17:48;10.13;;;1.90;;
10805;SDS011;5455;53.224;6.000;2023-12-22T05:20:15;8.07;;;2.03;;
10805;SDS011;5455;53.224;6.000;2023-12-22T05:22:43;7.27;;;2.03;;
10805;SDS011;5455;53.224;6.000;2023-12-22T05:25:12;11.83;;;2.13;;
10805;SDS011;5455;53.224;6.000;2023-12-22T05:27:40;8.43;;;2.40;;
10805;SDS011;5455;53.224;6.000;2023-12-22T05:30:09;11.90;;;1.90;;
10805;SDS011;5455;53.224;6.000;2023-12-22T05:32:37;12.07;;;2.30;;
10805;SDS011;5455;53.224;6.000;2023-12-22T05:35:04;8.07;;;1.53;;
10805;SDS011;5455;53.224;6.000;2023-12-22T05:37:31;10.73;;;1.73;;
10805;SDS011;5455;53.224;6.000;2023-12-22T05:39:58;9.97;;;1.97;;
10805;SDS011;5455;53.224;6.000;2023-12-22T05:42:25;8.13;;;1.70;;
10805;SDS011;5455;53.224;6.000;2023-12-22T05:44:52;8.20;;;1.70;;
10805;SDS011;5455;53.224;6.000;2023-12-22T05:47:19;10.40;;;2.23;;
10805;SDS011;5455;53.224;6.000;2023-12-22T05:49:46;6.97;;;1.60;;
10805;SDS011;5455;53.224;6.000;2023-12-22T05:52:13;6.27;;;1.50;;
10805;SDS011;5455;53.224;6.000;2023-12-22T05:54:40;5.90;;;1.60;;
10805;SDS011;5455;53.224;6.000;2023-12-22T05:57:07;8.40;;;1.50;;
10805;SDS011;5455;53.224;6.000;2023-12-22T05:59:34;9.60;;;1.87;;
10805;SDS011;5455;53.224;6.000;2023-12-22T06:02:01;7.00;;;1.80;;
10805;SDS011;5455;53.224;6.000;2023-12-22T06:04:29;10.47;;;2.00;;
10805;SDS011;5455;53.224;6.000;2023-12-22T06:06:57;8.30;;;1.97;;
10805;SDS011;5455;53.224;6.000;2023-12-22T06:09:24;8.20;;;1.43;;
10805;SDS011;5455;53.224;6.000;2023-12-22T06:11:51;9.17;;;1.67;;
10805;SDS011;5455;53.224;6.000;2023-12-22T06:14:18;6.70;;;1.10;;
10805;SDS011;5455;53.224;6.000;2023-12-22T06:16:45;8.97;;;1.33;;
10805;SDS011;5455;53.224;6.000;2023-12-22T06:19:13;12.90;;;2.20;;
10805;SDS011;5455;53.224;6.000;2023-12-22T06:21:40;8.50;;;1.83;;
10805;SDS011;5455;53.224;6.000;2023-12-22T06:24:07;10.93;;;2.27;;
10805;SDS011;5455;53.224;6.000;2023-12-22T06:26:35;7.67;;;1.70;;
10805;SDS011;5455;53.224;6.000;2023-12-22T06:29:02;7.73;;;1.80;;
10805;SDS011;5455;53.224;6.000;2023-12-22T06:31:30;9.67;;;2.00;;
10805;SDS011;5455;53.224;6.000;2023-12-22T06:33:57;5.80;;;1.20;;
10805;SDS011;5455;53.224;6.000;2023-12-22T06:36:29;12.97;;;1.90;;
10805;SDS011;5455;53.224;6.000;2023-12-22T06:38:57;7.20;;;1.33;;
10805;SDS011;5455;53.224;6.000;2023-12-22T06:41:28;5.40;;;1.70;;
10805;SDS011;5455;53.224;6.000;2023-12-22T06:43:56;10.17;;;2.00;;
10805;SDS011;5455;53.224;6.000;2023-12-22T06:46:27;7.27;;;1.50;;
10805;SDS011;5455;53.224;6.000;2023-12-22T06:48:59;9.40;;;1.90;;
10805;SDS011;5455;53.224;6.000;2023-12-22T06:51:30;12.47;;;3.00;;
10805;SDS011;5455;53.224;6.000;2023-12-22T06:53:57;8.43;;;2.77;;
10805;SDS011;5455;53.224;6.000;2023-12-22T06:56:29;11.27;;;2.00;;
10805;SDS011;5455;53.224;6.000;2023-12-22T06:58:57;9.80;;;1.60;;
10805;SDS011;5455;53.224;6.000;2023-12-22T07:01:28;4.67;;;1.40;;
10805;SDS011;5455;53.224;6.000;2023-12-22T07:03:59;9.77;;;1.50;;
10805;SDS011;5455;53.224;6.000;2023-12-22T07:06:30;7.60;;;1.60;;
10805;SDS011;5455;53.224;6.000;2023-12-22T07:11:38;7.50;;;1.90;;
10805;SDS011;5455;53.224;6.000;2023-12-22T07:14:06;7.90;;;1.90;;
10805;SDS011;5455;53.224;6.000;2023-12-22T07:16:34;13.03;;;1.80;;
10805;SDS011;5455;53.224;6.000;2023-12-22T07:19:02;11.20;;;2.03;;
10805;SDS011;5455;53.224;6.000;2023-12-22T07:21:30;9.40;;;1.90;;
10805;SDS011;5455;53.224;6.000;2023-12-22T07:23:57;10.73;;;1.80;;
10805;SDS011;5455;53.224;6.000;2023-12-22T07:26:27;14.50;;;1.70;;
10805;SDS011;5455;53.224;6.000;2023-12-22T07:28:54;5.50;;;1.73;;
10805;SDS011;5455;53.224;6.000;2023-12-22T07:31:22;7.07;;;1.47;;
10805;SDS011;5455;53.224;6.000;2023-12-22T07:33:49;7.63;;;2.43;;
10805;SDS011;5455;53.224;6.000;2023-12-22T07:36:16;8.77;;;1.47;;
10805;SDS011;5455;53.224;6.000;2023-12-22T07:38:46;11.67;;;2.10;;
10805;SDS011;5455;53.224;6.000;2023-12-22T07:41:12;9.07;;;1.50;;
10805;SDS011;5455;53.224;6.000;2023-12-22T07:43:39;8.70;;;1.70;;
10805;SDS011;5455;53.224;6.000;2023-12-22T07:46:08;10.97;;;1.83;;
10805;SDS011;5455;53.224;6.000;2023-12-22T07:48:43;10.70;;;1.80;;
10805;SDS011;5455;53.224;6.000;2023-12-22T07:51:12;6.07;;;1.47;;
10805;SDS011;5455;53.224;6.000;2023-12-22T07:53:39;11.50;;;2.23;;
10805;SDS011;5455;53.224;6.000;2023-12-22T07:56:06;12.70;;;1.60;;
10805;SDS011;5455;53.224;6.000;2023-12-22T07:58:34;9.07;;;2.00;;
10805;SDS011;5455;53.224;6.000;2023-12-22T08:01:02;8.20;;;1.60;;
10805;SDS011;5455;53.224;6.000;2023-12-22T08:03:29;7.77;;;1.90;;
10805;SDS011;5455;53.224;6.000;2023-12-22T08:05:56;9.23;;;2.17;;
10805;SDS011;5455;53.224;6.000;2023-12-22T08:08:23;3.83;;;1.10;;
10805;SDS011;5455;53.224;6.000;2023-12-22T08:10:50;7.37;;;1.27;;
10805;SDS011;5455;53.224;6.000;2023-12-22T08:13:17;4.77;;;1.60;;
10805;SDS011;5455;53.224;6.000;2023-12-22T08:15:44;6.43;;;1.10;;
10805;SDS011;5455;53.224;6.000;2023-12-22T08:18:12;9.33;;;1.60;;
10805;SDS011;5455;53.224;6.000;2023-12-22T08:20:39;6.43;;;1.30;;
10805;SDS011;5455;53.224;6.000;2023-12-22T08:23:10;5.30;;;0.97;;
10805;SDS011;5455;53.224;6.000;2023-12-22T08:25:39;6.53;;;1.37;;
10805;SDS011;5455;53.224;6.000;2023-12-22T08:28:10;5.10;;;1.10;;
10805;SDS011;5455;53.224;6.000;2023-12-22T08:30:39;3.47;;;0.83;;
10805;SDS011;5455;53.224;6.000;2023-12-22T08:33:06;5.53;;;0.90;;
10805;SDS011;5455;53.224;6.000;2023-12-22T08:35:33;5.33;;;0.93;;
10805;SDS011;5455;53.224;6.000;2023-12-22T08:38:01;7.00;;;1.23;;
10805;SDS011;5455;53.224;6.000;2023-12-22T08:40:29;2.40;;;0.80;;
10805;SDS011;5455;53.224;6.000;2023-12-22T08:42:57;3.77;;;0.73;;
10805;SDS011;5455;53.224;6.000;2023-12-22T08:45:28;3.10;;;1.00;;
10805;SDS011;5455;53.224;6.000;2023-12-22T08:47:58;7.13;;;1.10;;
10805;SDS011;5455;53.224;6.000;2023-12-22T08:50:25;8.17;;;1.33;;
10805;SDS011;5455;53.224;6.000;2023-12-22T08:52:52;4.87;;;1.73;;
10805;SDS011;5455;53.224;6.000;2023-12-22T08:55:20;6.90;;;2.10;;
10805;SDS011;5455;53.224;6.000;2023-12-22T08:57:47;8.33;;;2.10;;
10805;SDS011;5455;53.224;6.000;2023-12-22T09:00:25;6.37;;;1.50;;
10805;SDS011;5455;53.224;6.000;2023-12-22T09:02:52;8.57;;;0.90;;
10805;SDS011;5455;53.224;6.000;2023-12-22T09:05:20;9.87;;;1.50;;
10805;SDS011;5455;53.224;6.000;2023-12-22T09:07:49;5.70;;;1.40;;
10805;SDS011;5455;53.224;6.000;2023-12-22T09:10:16;7.67;;;1.17;;
10805;SDS011;5455;53.224;6.000;2023-12-22T09:12:43;4.47;;;1.23;;
10805;SDS011;5455;53.224;6.000;2023-12-22T09:15:10;7.00;;;1.27;;
10805;SDS011;5455;53.224;6.000;2023-12-22T09:17:37;6.87;;;1.13;;
10805;SDS011;5455;53.224;6.000;2023-12-22T09:20:06;3.67;;;1.30;;
10805;SDS011;5455;53.224;6.000;2023-12-22T09:22:34;10.30;;;1.50;;
10805;SDS011;5455;53.224;6.000;2023-12-22T09:25:01;7.43;;;1.47;;
10805;SDS011;5455;53.224;6.000;2023-12-22T09:27:28;9.97;;;1.47;;
10805;SDS011;5455;53.224;6.000;2023-12-22T09:29:57;6.33;;;1.20;;
10805;SDS011;5455;53.224;6.000;2023-12-22T09:32:24;7.20;;;1.30;;
10805;SDS011;5455;53.224;6.000;2023-12-22T09:34:52;5.00;;;1.20;;
10805;SDS011;5455;53.224;6.000;2023-12-22T09:37:21;5.30;;;1.27;;
10805;SDS011;5455;53.224;6.000;2023-12-22T09:39:48;6.83;;;1.20;;
10805;SDS011;5455;53.224;6.000;2023-12-22T09:42:15;7.93;;;1.60;;
10805;SDS011;5455;53.224;6.000;2023-12-22T09:44:43;7.97;;;1.23;;
10805;SDS011;5455;53.224;6.000;2023-12-22T09:47:10;2.20;;;0.83;;
10805;SDS011;5455;53.224;6.000;2023-12-22T09:49:39;6.67;;;1.50;;
10805;SDS011;5455;53.224;6.000;2023-12-22T09:52:08;5.17;;;1.43;;
10805;SDS011;5455;53.224;6.000;2023-12-22T09:54:35;6.63;;;1.73;;
10805;SDS011;5455;53.224;6.000;2023-12-22T09:57:04;8.10;;;1.53;;
10805;SDS011;5455;53.224;6.000;2023-12-22T09:59:49;5.70;;;1.00;;
10805;SDS011;5455;53.224;6.000;2023-12-22T10:02:19;9.33;;;1.50;;
10805;SDS011;5455;53.224;6.000;2023-12-22T10:04:46;4.13;;;1.00;;
10805;SDS011;5455;53.224;6.000;2023-12-22T10:07:13;6.97;;;0.97;;
10805;SDS011;5455;53.224;6.000;2023-12-22T10:09:41;4.50;;;0.90;;
10805;SDS011;5455;53.224;6.000;2023-12-22T10:12:09;3.40;;;0.60;;
10805;SDS011;5455;53.224;6.000;2023-12-22T10:14:38;4.87;;;1.00;;
10805;SDS011;5455;53.224;6.000;2023-12-22T10:17:06;5.20;;;0.90;;
10805;SDS011;5455;53.224;6.000;2023-12-22T10:19:34;4.77;;;0.97;;
10805;SDS011;5455;53.224;6.000;2023-12-22T10:22:01;4.33;;;1.30;;
10805;SDS011;5455;53.224;6.000;2023-12-22T10:27:14;4.93;;;1.20;;
10805;SDS011;5455;53.224;6.000;2023-12-22T10:29:41;5.87;;;1.40;;
10805;SDS011;5455;53.224;6.000;2023-12-22T10:32:08;6.27;;;1.20;;
10805;SDS011;5455;53.224;6.000;2023-12-22T10:34:36;7.43;;;1.30;;
10805;SDS011;5455;53.224;6.000;2023-12-22T10:37:04;7.47;;;1.10;;
10805;SDS011;5455;53.224;6.000;2023-12-22T10:39:31;3.77;;;1.10;;
10805;SDS011;5455;53.224;6.000;2023-12-22T10:41:59;4.30;;;0.90;;
10805;SDS011;5455;53.224;6.000;2023-12-22T10:44:27;4.87;;;0.90;;
10805;SDS011;5455;53.224;6.000;2023-12-22T10:46:55;6.30;;;1.40;;
10805;SDS011;5455;53.224;6.000;2023-12-22T10:49:23;6.33;;;1.17;;
10805;SDS011;5455;53.224;6.000;2023-12-22T10:51:51;4.73;;;0.90;;
10805;SDS011;5455;53.224;6.000;2023-12-22T10:54:19;6.47;;;0.97;;
10805;SDS011;5455;53.224;6.000;2023-12-22T10:56:46;5.53;;;1.07;;
10805;SDS011;5455;53.224;6.000;2023-12-22T10:59:16;3.60;;;0.70;;
10805;SDS011;5455;53.224;6.000;2023-12-22T11:01:45;8.67;;;1.47;;
10805;SDS011;5455;53.224;6.000;2023-12-22T11:04:17;8.60;;;1.37;;
10805;SDS011;5455;53.224;6.000;2023-12-22T11:06:47;8.30;;;1.57;;
10805;SDS011;5455;53.224;6.000;2023-12-22T11:09:16;4.97;;;1.10;;
10805;SDS011;5455;53.224;6.000;2023-12-22T11:11:48;6.07;;;1.00;;
10805;SDS011;5455;53.224;6.000;2023-12-22T11:14:16;5.00;;;1.00;;
10805;SDS011;5455;53.224;6.000;2023-12-22T11:16:44;8.40;;;1.50;;
10805;SDS011;5455;53.224;6.000;2023-12-22T11:19:15;6.50;;;1.30;;
10805;SDS011;5455;53.224;6.000;2023-12-22T11:21:42;5.43;;;1.53;;
10805;SDS011;5455;53.224;6.000;2023-12-22T11:24:11;4.23;;;1.07;;
10805;SDS011;5455;53.224;6.000;2023-12-22T11:26:43;7.27;;;1.30;;
10805;SDS011;5455;53.224;6.000;2023-12-22T11:29:14;8.00;;;1.13;;
10805;SDS011;5455;53.224;6.000;2023-12-22T11:31:41;6.80;;;1.30;;
10805;SDS011;5455;53.224;6.000;2023-12-22T11:34:12;5.53;;;1.10;;
10805;SDS011;5455;53.224;6.000;2023-12-22T11:36:45;7.87;;;0.90;;
10805;SDS011;5455;53.224;6.000;2023-12-22T11:39:14;5.50;;;1.00;;
10805;SDS011;5455;53.224;6.000;2023-12-22T11:41:41;5.57;;;0.90;;
10805;SDS011;5455;53.224;6.000;2023-12-22T11:44:10;6.03;;;1.40;;
10805;SDS011;5455;53.224;6.000;2023-12-22T11:46:37;4.63;;;1.03;;
10805;SDS011;5455;53.224;6.000;2023-12-22T11:49:04;3.87;;;0.97;;
10805;SDS011;5455;53.224;6.000;2023-12-22T11:51:32;4.87;;;0.87;;
10805;SDS011;5455;53.224;6.000;2023-12-22T11:54:03;4.77;;;1.07;;
10805;SDS011;5455;53.224;6.000;2023-12-22T11:56:30;4.93;;;1.30;;
10805;SDS011;5455;53.224;6.000;2023-12-22T11:58:58;5.03;;;0.97;;
10805;SDS011;5455;53.224;6.000;2023-12-22T12:01:26;5.87;;;1.23;;
10805;SDS011;5455;53.224;6.000;2023-12-22T12:04:01;3.47;;;1.10;;
10805;SDS011;5455;53.224;6.000;2023-12-22T12:06:32;3.83;;;0.90;;
10805;SDS011;5455;53.224;6.000;2023-12-22T12:09:03;3.70;;;0.90;;
10805;SDS011;5455;53.224;6.000;2023-12-22T12:14:51;6.73;;;1.70;;
10805;SDS011;5455;53.224;6.000;2023-12-22T12:17:15;5.93;;;1.00;;
10805;SDS011;5455;53.224;6.000;2023-12-22T12:19:44;4.80;;;0.80;;
10805;SDS011;5455;53.224;6.000;2023-12-22T12:22:14;5.63;;;1.07;;
10805;SDS011;5455;53.224;6.000;2023-12-22T12:24:41;6.93;;;1.43;;
10805;SDS011;5455;53.224;6.000;2023-12-22T12:27:09;7.77;;;1.30;;
10805;SDS011;5455;53.224;6.000;2023-12-22T12:29:36;3.70;;;1.07;;
10805;SDS011;5455;53.224;6.000;2023-12-22T12:32:04;5.60;;;1.50;;
10805;SDS011;5455;53.224;6.000;2023-12-22T12:34:32;7.60;;;1.10;;
10805;SDS011;5455;53.224;6.000;2023-12-22T12:37:00;4.03;;;0.93;;
10805;SDS011;5455;53.224;6.000;2023-12-22T12:39:30;7.10;;;1.20;;
10805;SDS011;5455;53.224;6.000;2023-12-22T12:42:00;6.33;;;1.33;;
10805;SDS011;5455;53.224;6.000;2023-12-22T12:44:30;5.23;;;0.90;;
10805;SDS011;5455;53.224;6.000;2023-12-22T12:47:10;4.37;;;0.93;;
10805;SDS011;5455;53.224;6.000;2023-12-22T12:49:41;4.27;;;0.83;;
10805;SDS011;5455;53.224;6.000;2023-12-22T12:52:13;4.57;;;0.93;;
10805;SDS011;5455;53.224;6.000;2023-12-22T12:54:40;2.57;;;0.77;;
10805;SDS011;5455;53.224;6.000;2023-12-22T12:57:13;6.60;;;1.03;;
10805;SDS011;5455;53.224;6.000;2023-12-22T12:59:48;3.93;;;1.40;;
10805;SDS011;5455;53.224;6.000;2023-12-22T13:02:16;2.50;;;0.80;;
10805;SDS011;5455;53.224;6.000;2023-12-22T13:04:44;3.80;;;0.97;;
10805;SDS011;5455;53.224;6.000;2023-12-22T13:07:12;5.33;;;1.10;;
10805;SDS011;5455;53.224;6.000;2023-12-22T13:09:41;5.50;;;1.10;;
10805;SDS011;5455;53.224;6.000;2023-12-22T13:12:08;5.17;;;0.83;;
10805;SDS011;5455;53.224;6.000;2023-12-22T13:14:36;3.47;;;0.70;;
10805;SDS011;5455;53.224;6.000;2023-12-22T13:17:03;6.80;;;1.00;;
10805;SDS011;5455;53.224;6.000;2023-12-22T13:19:31;3.30;;;0.80;;
10805;SDS011;5455;53.224;6.000;2023-12-22T13:21:59;2.13;;;0.90;;
10805;SDS011;5455;53.224;6.000;2023-12-22T13:24:27;3.47;;;1.13;;
10805;SDS011;5455;53.224;6.000;2023-12-22T13:27:02;3.37;;;0.80;;
10805;SDS011;5455;53.224;6.000;2023-12-22T13:29:42;6.37;;;0.90;;
10805;SDS011;5455;53.224;6.000;2023-12-22T13:32:17;3.53;;;0.93;;
10805;SDS011;5455;53.224;6.000;2023-12-22T13:34:55;3.50;;;0.87;;
10805;SDS011;5455;53.224;6.000;2023-12-22T13:37:23;2.87;;;0.60;;
10805;SDS011;5455;53.224;6.000;2023-12-22T13:39:53;2.87;;;0.67;;
10805;SDS011;5455;53.224;6.000;2023-12-22T13:42:20;3.93;;;0.53;;
10805;SDS011;5455;53.224;6.000;2023-12-22T13:44:48;3.13;;;0.60;;
10805;SDS011;5455;53.224;6.000;2023-12-22T13:47:16;3.43;;;0.60;;
10805;SDS011;5455;53.224;6.000;2023-12-22T13:49:44;2.03;;;0.80;;
10805;SDS011;5455;53.224;6.000;2023-12-22T13:52:24;2.97;;;0.37;;
10805;SDS011;5455;53.224;6.000;2023-12-22T13:54:55;1.83;;;0.60;;
10805;SDS011;5455;53.224;6.000;2023-12-22T13:57:23;1.20;;;0.60;;
10805;SDS011;5455;53.224;6.000;2023-12-22T13:59:52;4.03;;;0.70;;
10805;SDS011;5455;53.224;6.000;2023-12-22T14:02:20;2.77;;;0.53;;
10805;SDS011;5455;53.224;6.000;2023-12-22T14:04:49;3.23;;;0.43;;
10805;SDS011;5455;53.224;6.000;2023-12-22T14:07:18;1.57;;;0.83;;
10805;SDS011;5455;53.224;6.000;2023-12-22T14:09:45;1.70;;;0.67;;
10805;SDS011;5455;53.224;6.000;2023-12-22T14:12:12;2.43;;;0.77;;
10805;SDS011;5455;53.224;6.000;2023-12-22T14:14:50;3.37;;;0.70;;
10805;SDS011;5455;53.224;6.000;2023-12-22T14:17:17;5.10;;;0.60;;
10805;SDS011;5455;53.224;6.000;2023-12-22T14:19:46;4.03;;;0.97;;
10805;SDS011;5455;53.224;6.000;2023-12-22T14:22:16;5.63;;;0.83;;
10805;SDS011;5455;53.224;6.000;2023-12-22T14:24:43;6.23;;;1.03;;
10805;SDS011;5455;53.224;6.000;2023-12-22T14:27:10;6.23;;;1.00;;
10805;SDS011;5455;53.224;6.000;2023-12-22T14:29:37;5.30;;;1.17;;
10805;SDS011;5455;53.224;6.000;2023-12-22T14:32:07;5.23;;;1.00;;
10805;SDS011;5455;53.224;6.000;2023-12-22T14:34:41;2.07;;;1.00;;
10805;SDS011;5455;53.224;6.000;2023-12-22T14:37:09;5.13;;;0.53;;
10805;SDS011;5455;53.224;6.000;2023-12-22T14:39:36;5.10;;;0.97;;
10805;SDS011;5455;53.224;6.000;2023-12-22T14:42:03;4.63;;;0.83;;
10805;SDS011;5455;53.224;6.000;2023-12-22T14:44:30;7.27;;;0.90;;
10805;SDS011;5455;53.224;6.000;2023-12-22T14:46:58;2.63;;;0.87;;
10805;SDS011;5455;53.224;6.000;2023-12-22T14:49:25;3.50;;;0.63;;
10805;SDS011;5455;53.224;6.000;2023-12-22T14:51:52;4.43;;;0.93;;
10805;SDS011;5455;53.224;6.000;2023-12-22T14:54:21;6.23;;;0.93;;
10805;SDS011;5455;53.224;6.000;2023-12-22T14:56:48;4.17;;;1.17;;
10805;SDS011;5455;53.224;6.000;2023-12-22T14:59:16;6.33;;;1.27;;
10805;SDS011;5455;53.224;6.000;2023-12-22T15:01:43;6.00;;;1.20;;
10805;SDS011;5455;53.224;6.000;2023-12-22T15:04:15;5.00;;;0.80;;
10805;SDS011;5455;53.224;6.000;2023-12-22T15:06:43;3.40;;;0.80;;
10805;SDS011;5455;53.224;6.000;2023-12-22T15:09:12;5.27;;;0.70;;
10805;SDS011;5455;53.224;6.000;2023-12-22T15:11:40;4.17;;;0.90;;
10805;SDS011;5455;53.224;6.000;2023-12-22T15:14:08;6.10;;;0.90;;
10805;SDS011;5455;53.224;6.000;2023-12-22T15:16:39;3.83;;;0.80;;